sensor_id;sensor_type;location;lat;lon;timestamp;temperature;humidity
24262;DHT22;12385;51.412;5.540;2023-06-14T00:01:57;22.60;48.30
24262;DHT22;12385;51.412;5.540;2023-06-14T00:04:23;22.40;48.70
24262;DHT22;12385;51.412;5.540;2023-06-14T00:06:51;22.30;48.90
24262;DHT22;12385;51.412;5.540;2023-06-14T00:09:16;22.20;49.10
24262;DHT22;12385;51.412;5.540;2023-06-14T00:11:45;22.20;49.50
24262;DHT22;12385;51.412;5.540;2023-06-14T00:14:15;22.10;49.70
24262;DHT22;12385;51.412;5.540;2023-06-14T00:16:45;22.10;49.90
24262;DHT22;12385;51.412;5.540;2023-06-14T00:19:11;22.00;50.00
24262;DHT22;12385;51.412;5.540;2023-06-14T00:21:37;21.90;50.30
24262;DHT22;12385;51.412;5.540;2023-06-14T00:24:03;21.80;50.60
24262;DHT22;12385;51.412;5.540;2023-06-14T00:26:29;21.70;50.90
24262;DHT22;12385;51.412;5.540;2023-06-14T00:28:55;21.60;51.10
24262;DHT22;12385;51.412;5.540;2023-06-14T00:31:25;21.50;51.80
24262;DHT22;12385;51.412;5.540;2023-06-14T00:33:51;21.50;51.20
24262;DHT22;12385;51.412;5.540;2023-06-14T00:36:17;21.40;51.40
24262;DHT22;12385;51.412;5.540;2023-06-14T00:38:42;21.30;51.60
24262;DHT22;12385;51.412;5.540;2023-06-14T00:41:08;21.30;51.80
24262;DHT22;12385;51.412;5.540;2023-06-14T00:43:34;21.20;51.90
24262;DHT22;12385;51.412;5.540;2023-06-14T00:46:00;21.10;52.10
24262;DHT22;12385;51.412;5.540;2023-06-14T00:48:28;21.10;52.40
24262;DHT22;12385;51.412;5.540;2023-06-14T00:50:56;21.00;52.50
24262;DHT22;12385;51.412;5.540;2023-06-14T00:53:22;20.90;52.60
24262;DHT22;12385;51.412;5.540;2023-06-14T00:55:50;20.80;52.60
24262;DHT22;12385;51.412;5.540;2023-06-14T00:58:21;20.80;52.40
24262;DHT22;12385;51.412;5.540;2023-06-14T01:00:47;20.80;52.20
24262;DHT22;12385;51.412;5.540;2023-06-14T01:03:14;20.80;52.20
24262;DHT22;12385;51.412;5.540;2023-06-14T01:05:44;20.80;52.10
24262;DHT22;12385;51.412;5.540;2023-06-14T01:08:24;20.80;51.90
24262;DHT22;12385;51.412;5.540;2023-06-14T01:11:16;20.80;51.70
24262;DHT22;12385;51.412;5.540;2023-06-14T01:13:46;20.80;51.60
24262;DHT22;12385;51.412;5.540;2023-06-14T01:16:12;20.80;51.70
24262;DHT22;12385;51.412;5.540;2023-06-14T01:18:38;20.70;51.30
24262;DHT22;12385;51.412;5.540;2023-06-14T01:21:23;20.70;51.30
24262;DHT22;12385;51.412;5.540;2023-06-14T01:23:49;20.70;51.00
24262;DHT22;12385;51.412;5.540;2023-06-14T01:26:19;20.60;50.90
24262;DHT22;12385;51.412;5.540;2023-06-14T01:28:46;20.60;50.70
24262;DHT22;12385;51.412;5.540;2023-06-14T01:31:19;20.60;50.60
24262;DHT22;12385;51.412;5.540;2023-06-14T01:33:50;20.70;50.60
24262;DHT22;12385;51.412;5.540;2023-06-14T01:36:18;20.70;50.50
24262;DHT22;12385;51.412;5.540;2023-06-14T01:38:44;20.70;50.40
24262;DHT22;12385;51.412;5.540;2023-06-14T01:41:11;20.60;50.40
24262;DHT22;12385;51.412;5.540;2023-06-14T01:43:39;20.60;50.50
24262;DHT22;12385;51.412;5.540;2023-06-14T01:46:06;20.50;50.50
24262;DHT22;12385;51.412;5.540;2023-06-14T01:48:34;20.50;50.70
24262;DHT22;12385;51.412;5.540;2023-06-14T01:51:00;20.50;50.80
24262;DHT22;12385;51.412;5.540;2023-06-14T01:53:26;20.40;50.80
24262;DHT22;12385;51.412;5.540;2023-06-14T01:55:52;20.40;50.90
24262;DHT22;12385;51.412;5.540;2023-06-14T01:58:19;20.40;50.80
24262;DHT22;12385;51.412;5.540;2023-06-14T02:00:45;20.30;50.70
24262;DHT22;12385;51.412;5.540;2023-06-14T02:03:12;20.30;50.70
24262;DHT22;12385;51.412;5.540;2023-06-14T02:05:46;20.20;50.70
24262;DHT22;12385;51.412;5.540;2023-06-14T02:08:12;20.20;50.70
24262;DHT22;12385;51.412;5.540;2023-06-14T02:10:38;20.10;50.80
24262;DHT22;12385;51.412;5.540;2023-06-14T02:13:04;20.20;50.90
24262;DHT22;12385;51.412;5.540;2023-06-14T02:15:30;20.20;51.00
24262;DHT22;12385;51.412;5.540;2023-06-14T02:18:02;20.10;51.10
24262;DHT22;12385;51.412;5.540;2023-06-14T02:20:28;20.10;51.60
24262;DHT22;12385;51.412;5.540;2023-06-14T02:22:54;20.10;50.90
24262;DHT22;12385;51.412;5.540;2023-06-14T02:25:20;20.00;51.10
24262;DHT22;12385;51.412;5.540;2023-06-14T02:27:49;20.00;51.30
24262;DHT22;12385;51.412;5.540;2023-06-14T02:30:16;20.00;51.50
24262;DHT22;12385;51.412;5.540;2023-06-14T02:32:42;19.90;51.70
24262;DHT22;12385;51.412;5.540;2023-06-14T02:35:10;19.80;51.80
24262;DHT22;12385;51.412;5.540;2023-06-14T02:37:36;19.80;52.00
24262;DHT22;12385;51.412;5.540;2023-06-14T02:40:02;19.70;52.20
24262;DHT22;12385;51.412;5.540;2023-06-14T02:42:29;19.70;52.40
24262;DHT22;12385;51.412;5.540;2023-06-14T02:44:56;19.60;52.10
24262;DHT22;12385;51.412;5.540;2023-06-14T02:47:23;19.60;52.30
24262;DHT22;12385;51.412;5.540;2023-06-14T02:49:50;19.60;52.50
24262;DHT22;12385;51.412;5.540;2023-06-14T02:52:16;19.50;52.70
24262;DHT22;12385;51.412;5.540;2023-06-14T02:54:41;19.50;53.00
24262;DHT22;12385;51.412;5.540;2023-06-14T02:57:13;19.40;53.20
24262;DHT22;12385;51.412;5.540;2023-06-14T02:59:39;19.30;53.40
24262;DHT22;12385;51.412;5.540;2023-06-14T03:02:05;19.30;53.80
24262;DHT22;12385;51.412;5.540;2023-06-14T03:04:31;19.20;53.90
24262;DHT22;12385;51.412;5.540;2023-06-14T03:07:03;19.10;54.10
24262;DHT22;12385;51.412;5.540;2023-06-14T03:09:35;19.10;54.30
24262;DHT22;12385;51.412;5.540;2023-06-14T03:12:04;19.10;54.60
24262;DHT22;12385;51.412;5.540;2023-06-14T03:14:31;19.00;54.90
24262;DHT22;12385;51.412;5.540;2023-06-14T03:16:58;19.00;55.10
24262;DHT22;12385;51.412;5.540;2023-06-14T03:19:25;18.90;55.20
24262;DHT22;12385;51.412;5.540;2023-06-14T03:21:52;18.90;55.50
24262;DHT22;12385;51.412;5.540;2023-06-14T03:24:19;18.80;55.60
24262;DHT22;12385;51.412;5.540;2023-06-14T03:26:45;18.80;55.70
24262;DHT22;12385;51.412;5.540;2023-06-14T03:29:12;18.80;56.00
24262;DHT22;12385;51.412;5.540;2023-06-14T03:31:56;18.70;56.10
24262;DHT22;12385;51.412;5.540;2023-06-14T03:34:21;18.70;56.20
24262;DHT22;12385;51.412;5.540;2023-06-14T03:36:47;18.70;56.20
24262;DHT22;12385;51.412;5.540;2023-06-14T03:39:13;18.70;56.40
24262;DHT22;12385;51.412;5.540;2023-06-14T03:41:38;18.60;56.40
24262;DHT22;12385;51.412;5.540;2023-06-14T03:44:05;18.70;56.50
24262;DHT22;12385;51.412;5.540;2023-06-14T03:46:31;18.70;56.40
24262;DHT22;12385;51.412;5.540;2023-06-14T03:48:58;18.70;56.30
24262;DHT22;12385;51.412;5.540;2023-06-14T03:51:25;18.70;56.30
24262;DHT22;12385;51.412;5.540;2023-06-14T03:53:52;18.70;56.20
24262;DHT22;12385;51.412;5.540;2023-06-14T03:56:19;18.70;55.90
24262;DHT22;12385;51.412;5.540;2023-06-14T03:58:45;18.70;56.10
24262;DHT22;12385;51.412;5.540;2023-06-14T04:01:10;18.70;55.70
24262;DHT22;12385;51.412;5.540;2023-06-14T04:03:37;18.70;55.50
24262;DHT22;12385;51.412;5.540;2023-06-14T04:06:04;18.70;55.70
24262;DHT22;12385;51.412;5.540;2023-06-14T04:08:31;18.70;55.60
24262;DHT22;12385;51.412;5.540;2023-06-14T04:10:57;18.70;55.30
24262;DHT22;12385;51.412;5.540;2023-06-14T04:13:22;18.70;55.30
24262;DHT22;12385;51.412;5.540;2023-06-14T04:15:48;18.70;55.10
24262;DHT22;12385;51.412;5.540;2023-06-14T04:18:20;18.70;54.80
24262;DHT22;12385;51.412;5.540;2023-06-14T04:20:46;18.80;54.70
24262;DHT22;12385;51.412;5.540;2023-06-14T04:23:16;18.80;54.70
24262;DHT22;12385;51.412;5.540;2023-06-14T04:25:43;18.80;54.60
24262;DHT22;12385;51.412;5.540;2023-06-14T04:28:13;18.90;54.80
24262;DHT22;12385;51.412;5.540;2023-06-14T04:30:43;18.90;54.60
24262;DHT22;12385;51.412;5.540;2023-06-14T04:33:10;18.90;54.50
24262;DHT22;12385;51.412;5.540;2023-06-14T04:35:36;18.90;54.30
24262;DHT22;12385;51.412;5.540;2023-06-14T04:38:03;18.90;54.20
24262;DHT22;12385;51.412;5.540;2023-06-14T04:40:30;18.90;54.20
24262;DHT22;12385;51.412;5.540;2023-06-14T04:42:59;19.00;54.10
24262;DHT22;12385;51.412;5.540;2023-06-14T04:45:35;19.00;54.10
24262;DHT22;12385;51.412;5.540;2023-06-14T04:48:02;19.00;54.00
24262;DHT22;12385;51.412;5.540;2023-06-14T04:50:29;19.00;54.10
24262;DHT22;12385;51.412;5.540;2023-06-14T04:52:56;19.00;54.00
24262;DHT22;12385;51.412;5.540;2023-06-14T04:55:22;19.10;54.00
24262;DHT22;12385;51.412;5.540;2023-06-14T04:57:48;19.10;54.00
24262;DHT22;12385;51.412;5.540;2023-06-14T05:00:16;19.10;53.90
24262;DHT22;12385;51.412;5.540;2023-06-14T05:02:48;19.20;54.00
24262;DHT22;12385;51.412;5.540;2023-06-14T05:05:16;19.20;53.90
24262;DHT22;12385;51.412;5.540;2023-06-14T05:07:42;19.10;54.00
24262;DHT22;12385;51.412;5.540;2023-06-14T05:10:09;19.20;54.10
24262;DHT22;12385;51.412;5.540;2023-06-14T05:12:37;19.20;54.20
24262;DHT22;12385;51.412;5.540;2023-06-14T05:15:04;19.20;54.20
24262;DHT22;12385;51.412;5.540;2023-06-14T05:17:30;19.20;54.10
24262;DHT22;12385;51.412;5.540;2023-06-14T05:19:55;19.20;54.10
24262;DHT22;12385;51.412;5.540;2023-06-14T05:22:22;19.30;54.10
24262;DHT22;12385;51.412;5.540;2023-06-14T05:24:47;19.30;54.20
24262;DHT22;12385;51.412;5.540;2023-06-14T05:27:13;19.40;54.20
24262;DHT22;12385;51.412;5.540;2023-06-14T05:29:42;19.30;54.10
24262;DHT22;12385;51.412;5.540;2023-06-14T05:32:10;19.40;54.10
24262;DHT22;12385;51.412;5.540;2023-06-14T05:34:36;19.40;54.10
24262;DHT22;12385;51.412;5.540;2023-06-14T05:37:06;19.40;54.20
24262;DHT22;12385;51.412;5.540;2023-06-14T05:39:32;19.50;54.00
24262;DHT22;12385;51.412;5.540;2023-06-14T05:41:58;19.50;54.00
24262;DHT22;12385;51.412;5.540;2023-06-14T05:44:25;19.50;54.10
24262;DHT22;12385;51.412;5.540;2023-06-14T05:46:50;19.60;54.10
24262;DHT22;12385;51.412;5.540;2023-06-14T05:49:16;19.70;54.10
24262;DHT22;12385;51.412;5.540;2023-06-14T05:51:42;19.70;54.00
24262;DHT22;12385;51.412;5.540;2023-06-14T05:54:07;19.80;54.00
24262;DHT22;12385;51.412;5.540;2023-06-14T05:56:33;19.80;54.00
24262;DHT22;12385;51.412;5.540;2023-06-14T05:58:58;19.90;54.10
24262;DHT22;12385;51.412;5.540;2023-06-14T06:01:24;19.90;54.10
24262;DHT22;12385;51.412;5.540;2023-06-14T06:03:50;20.00;53.90
24262;DHT22;12385;51.412;5.540;2023-06-14T06:06:17;20.00;53.90
24262;DHT22;12385;51.412;5.540;2023-06-14T06:08:43;20.10;54.00
24262;DHT22;12385;51.412;5.540;2023-06-14T06:11:09;20.20;54.00
24262;DHT22;12385;51.412;5.540;2023-06-14T06:13:35;20.20;53.90
24262;DHT22;12385;51.412;5.540;2023-06-14T06:16:02;20.30;53.80
24262;DHT22;12385;51.412;5.540;2023-06-14T06:18:28;20.30;53.90
24262;DHT22;12385;51.412;5.540;2023-06-14T06:20:53;20.40;53.90
24262;DHT22;12385;51.412;5.540;2023-06-14T06:23:19;20.50;53.60
24262;DHT22;12385;51.412;5.540;2023-06-14T06:25:45;20.50;53.60
24262;DHT22;12385;51.412;5.540;2023-06-14T06:28:10;20.60;53.40
24262;DHT22;12385;51.412;5.540;2023-06-14T06:30:36;20.70;53.80
24262;DHT22;12385;51.412;5.540;2023-06-14T06:33:02;20.70;53.40
24262;DHT22;12385;51.412;5.540;2023-06-14T06:35:29;20.70;53.40
24262;DHT22;12385;51.412;5.540;2023-06-14T06:37:56;20.80;53.20
24262;DHT22;12385;51.412;5.540;2023-06-14T06:40:22;20.90;53.10
24262;DHT22;12385;51.412;5.540;2023-06-14T06:42:47;21.00;52.80
24262;DHT22;12385;51.412;5.540;2023-06-14T06:45:13;21.00;52.50
24262;DHT22;12385;51.412;5.540;2023-06-14T06:47:41;21.10;52.50
24262;DHT22;12385;51.412;5.540;2023-06-14T06:50:07;21.20;52.40
24262;DHT22;12385;51.412;5.540;2023-06-14T06:52:33;21.20;52.20
24262;DHT22;12385;51.412;5.540;2023-06-14T06:54:59;21.30;51.90
24262;DHT22;12385;51.412;5.540;2023-06-14T06:57:24;21.30;51.80
24262;DHT22;12385;51.412;5.540;2023-06-14T06:59:50;21.40;51.40
24262;DHT22;12385;51.412;5.540;2023-06-14T07:02:18;21.50;51.10
24262;DHT22;12385;51.412;5.540;2023-06-14T07:04:43;21.50;50.90
24262;DHT22;12385;51.412;5.540;2023-06-14T07:07:09;21.60;50.90
24262;DHT22;12385;51.412;5.540;2023-06-14T07:09:37;21.70;50.90
24262;DHT22;12385;51.412;5.540;2023-06-14T07:12:03;21.70;50.60
24262;DHT22;12385;51.412;5.540;2023-06-14T07:14:28;21.80;50.60
24262;DHT22;12385;51.412;5.540;2023-06-14T07:16:56;21.80;50.40
24262;DHT22;12385;51.412;5.540;2023-06-14T07:19:22;21.90;50.50
24262;DHT22;12385;51.412;5.540;2023-06-14T07:21:47;21.90;50.50
24262;DHT22;12385;51.412;5.540;2023-06-14T07:24:13;22.00;50.40
24262;DHT22;12385;51.412;5.540;2023-06-14T07:26:41;22.10;50.20
24262;DHT22;12385;51.412;5.540;2023-06-14T07:29:07;22.20;50.10
24262;DHT22;12385;51.412;5.540;2023-06-14T07:31:33;22.20;49.80
24262;DHT22;12385;51.412;5.540;2023-06-14T07:33:59;22.30;49.60
24262;DHT22;12385;51.412;5.540;2023-06-14T07:36:24;22.30;49.60
24262;DHT22;12385;51.412;5.540;2023-06-14T07:38:50;22.40;49.60
24262;DHT22;12385;51.412;5.540;2023-06-14T07:41:16;22.40;49.50
24262;DHT22;12385;51.412;5.540;2023-06-14T07:43:41;22.50;49.20
24262;DHT22;12385;51.412;5.540;2023-06-14T07:46:07;22.50;49.10
24262;DHT22;12385;51.412;5.540;2023-06-14T07:48:34;22.60;49.00
24262;DHT22;12385;51.412;5.540;2023-06-14T07:51:00;22.70;48.80
24262;DHT22;12385;51.412;5.540;2023-06-14T07:53:27;22.70;48.80
24262;DHT22;12385;51.412;5.540;2023-06-14T07:55:53;22.80;48.80
24262;DHT22;12385;51.412;5.540;2023-06-14T07:58:18;22.90;48.60
24262;DHT22;12385;51.412;5.540;2023-06-14T08:00:44;23.00;48.40
24262;DHT22;12385;51.412;5.540;2023-06-14T08:03:11;23.00;48.30
24262;DHT22;12385;51.412;5.540;2023-06-14T08:05:38;23.10;48.20
24262;DHT22;12385;51.412;5.540;2023-06-14T08:08:03;23.10;48.00
24262;DHT22;12385;51.412;5.540;2023-06-14T08:10:29;23.20;47.90
24262;DHT22;12385;51.412;5.540;2023-06-14T08:12:57;23.20;47.70
24262;DHT22;12385;51.412;5.540;2023-06-14T08:15:22;23.30;47.80
24262;DHT22;12385;51.412;5.540;2023-06-14T08:17:48;23.30;47.30
24262;DHT22;12385;51.412;5.540;2023-06-14T08:20:13;23.40;47.00
24262;DHT22;12385;51.412;5.540;2023-06-14T08:22:42;23.40;46.90
24262;DHT22;12385;51.412;5.540;2023-06-14T08:25:14;23.50;46.60
24262;DHT22;12385;51.412;5.540;2023-06-14T08:27:40;23.60;46.60
24262;DHT22;12385;51.412;5.540;2023-06-14T08:30:06;23.60;46.50
24262;DHT22;12385;51.412;5.540;2023-06-14T08:32:33;23.60;46.30
24262;DHT22;12385;51.412;5.540;2023-06-14T08:34:59;23.60;46.10
24262;DHT22;12385;51.412;5.540;2023-06-14T08:37:26;23.70;46.10
24262;DHT22;12385;51.412;5.540;2023-06-14T08:39:52;23.80;46.10
24262;DHT22;12385;51.412;5.540;2023-06-14T08:42:19;23.90;46.10
24262;DHT22;12385;51.412;5.540;2023-06-14T08:44:46;23.90;45.50
24262;DHT22;12385;51.412;5.540;2023-06-14T08:47:12;24.00;45.10
24262;DHT22;12385;51.412;5.540;2023-06-14T08:49:40;24.00;44.50
24262;DHT22;12385;51.412;5.540;2023-06-14T08:52:11;24.20;44.30
24262;DHT22;12385;51.412;5.540;2023-06-14T08:54:38;24.20;44.10
24262;DHT22;12385;51.412;5.540;2023-06-14T08:57:11;24.30;44.10
24262;DHT22;12385;51.412;5.540;2023-06-14T08:59:47;24.40;44.20
24262;DHT22;12385;51.412;5.540;2023-06-14T09:02:17;24.40;44.60
24262;DHT22;12385;51.412;5.540;2023-06-14T09:04:45;24.40;43.60
24262;DHT22;12385;51.412;5.540;2023-06-14T09:07:11;24.50;43.30
24262;DHT22;12385;51.412;5.540;2023-06-14T09:09:42;24.50;42.70
24262;DHT22;12385;51.412;5.540;2023-06-14T09:12:10;24.60;42.40
24262;DHT22;12385;51.412;5.540;2023-06-14T09:14:37;24.70;42.20
24262;DHT22;12385;51.412;5.540;2023-06-14T09:17:05;24.70;41.90
24262;DHT22;12385;51.412;5.540;2023-06-14T09:19:31;24.80;41.40
24262;DHT22;12385;51.412;5.540;2023-06-14T09:21:57;24.80;40.70
24262;DHT22;12385;51.412;5.540;2023-06-14T09:24:25;24.90;40.60
24262;DHT22;12385;51.412;5.540;2023-06-14T09:26:51;25.00;40.00
24262;DHT22;12385;51.412;5.540;2023-06-14T09:29:18;25.00;39.50
24262;DHT22;12385;51.412;5.540;2023-06-14T09:31:46;25.10;39.20
24262;DHT22;12385;51.412;5.540;2023-06-14T09:34:12;25.10;38.80
24262;DHT22;12385;51.412;5.540;2023-06-14T09:36:40;25.20;38.30
24262;DHT22;12385;51.412;5.540;2023-06-14T09:39:17;25.30;38.00
24262;DHT22;12385;51.412;5.540;2023-06-14T09:41:43;25.30;38.20
24262;DHT22;12385;51.412;5.540;2023-06-14T09:44:10;25.30;37.50
24262;DHT22;12385;51.412;5.540;2023-06-14T09:46:37;25.40;37.20
24262;DHT22;12385;51.412;5.540;2023-06-14T09:49:04;25.40;36.80
24262;DHT22;12385;51.412;5.540;2023-06-14T09:51:30;25.50;36.50
24262;DHT22;12385;51.412;5.540;2023-06-14T09:54:02;25.50;36.70
24262;DHT22;12385;51.412;5.540;2023-06-14T09:58:59;25.70;37.10
24262;DHT22;12385;51.412;5.540;2023-06-14T10:01:30;25.70;37.20
24262;DHT22;12385;51.412;5.540;2023-06-14T10:04:04;25.70;37.20
24262;DHT22;12385;51.412;5.540;2023-06-14T10:06:32;25.80;37.20
24262;DHT22;12385;51.412;5.540;2023-06-14T10:09:00;25.80;37.20
24262;DHT22;12385;51.412;5.540;2023-06-14T10:11:27;25.90;37.30
24262;DHT22;12385;51.412;5.540;2023-06-14T10:13:56;25.90;37.30
24262;DHT22;12385;51.412;5.540;2023-06-14T10:22:20;26.30;36.00
24262;DHT22;12385;51.412;5.540;2023-06-14T10:24:48;26.30;35.60
24262;DHT22;12385;51.412;5.540;2023-06-14T10:27:15;26.40;35.60
24262;DHT22;12385;51.412;5.540;2023-06-14T10:32:28;26.50;35.30
24262;DHT22;12385;51.412;5.540;2023-06-14T10:35:08;26.50;35.40
24262;DHT22;12385;51.412;5.540;2023-06-14T10:37:34;26.60;35.50
24262;DHT22;12385;51.412;5.540;2023-06-14T10:40:02;26.60;35.30
24262;DHT22;12385;51.412;5.540;2023-06-14T10:42:33;26.70;35.10
24262;DHT22;12385;51.412;5.540;2023-06-14T10:44:59;26.70;35.30
24262;DHT22;12385;51.412;5.540;2023-06-14T10:47:35;26.80;35.60
24262;DHT22;12385;51.412;5.540;2023-06-14T10:50:08;26.90;35.70
24262;DHT22;12385;51.412;5.540;2023-06-14T10:52:44;27.00;35.70
24262;DHT22;12385;51.412;5.540;2023-06-14T10:55:17;27.00;35.80
24262;DHT22;12385;51.412;5.540;2023-06-14T10:57:54;27.00;35.80
24262;DHT22;12385;51.412;5.540;2023-06-14T11:00:28;27.10;36.00
24262;DHT22;12385;51.412;5.540;2023-06-14T11:03:30;27.20;36.00
24262;DHT22;12385;51.412;5.540;2023-06-14T11:06:13;27.40;35.80
24262;DHT22;12385;51.412;5.540;2023-06-14T11:11:38;27.60;35.70
24262;DHT22;12385;51.412;5.540;2023-06-14T11:14:07;27.70;35.50
24262;DHT22;12385;51.412;5.540;2023-06-14T11:16:33;27.80;35.60
24262;DHT22;12385;51.412;5.540;2023-06-14T11:19:01;27.90;35.70
24262;DHT22;12385;51.412;5.540;2023-06-14T11:21:28;28.00;35.40
24262;DHT22;12385;51.412;5.540;2023-06-14T11:23:56;28.10;35.40
24262;DHT22;12385;51.412;5.540;2023-06-14T11:26:26;28.10;35.40
24262;DHT22;12385;51.412;5.540;2023-06-14T11:28:58;28.20;35.00
24262;DHT22;12385;51.412;5.540;2023-06-14T11:31:25;28.30;34.50
24262;DHT22;12385;51.412;5.540;2023-06-14T11:33:54;28.30;34.40
24262;DHT22;12385;51.412;5.540;2023-06-14T11:36:21;28.40;34.10
24262;DHT22;12385;51.412;5.540;2023-06-14T11:38:46;28.50;34.20
24262;DHT22;12385;51.412;5.540;2023-06-14T11:41:12;28.60;34.20
24262;DHT22;12385;51.412;5.540;2023-06-14T11:43:39;28.60;34.10
24262;DHT22;12385;51.412;5.540;2023-06-14T11:46:12;28.80;34.10
24262;DHT22;12385;51.412;5.540;2023-06-14T11:48:42;28.80;33.90
24262;DHT22;12385;51.412;5.540;2023-06-14T11:51:09;28.90;33.60
24262;DHT22;12385;51.412;5.540;2023-06-14T11:53:36;29.00;33.90
24262;DHT22;12385;51.412;5.540;2023-06-14T11:56:03;29.10;34.10
24262;DHT22;12385;51.412;5.540;2023-06-14T11:58:29;29.20;34.90
24262;DHT22;12385;51.412;5.540;2023-06-14T12:00:55;29.20;34.10
24262;DHT22;12385;51.412;5.540;2023-06-14T12:03:25;29.20;34.20
24262;DHT22;12385;51.412;5.540;2023-06-14T12:06:01;29.20;34.20
24262;DHT22;12385;51.412;5.540;2023-06-14T12:08:38;29.20;34.50
24262;DHT22;12385;51.412;5.540;2023-06-14T12:11:10;29.30;34.60
24262;DHT22;12385;51.412;5.540;2023-06-14T12:13:38;29.40;34.50
24262;DHT22;12385;51.412;5.540;2023-06-14T12:16:04;29.60;34.20
24262;DHT22;12385;51.412;5.540;2023-06-14T12:18:35;29.70;34.10
24262;DHT22;12385;51.412;5.540;2023-06-14T12:21:03;29.90;34.20
24262;DHT22;12385;51.412;5.540;2023-06-14T12:23:47;29.90;34.00
24262;DHT22;12385;51.412;5.540;2023-06-14T12:26:18;30.00;34.10
24262;DHT22;12385;51.412;5.540;2023-06-14T12:28:49;30.10;34.00
24262;DHT22;12385;51.412;5.540;2023-06-14T12:31:16;30.20;33.70
24262;DHT22;12385;51.412;5.540;2023-06-14T12:33:42;30.10;33.50
24262;DHT22;12385;51.412;5.540;2023-06-14T12:36:12;30.10;33.50
24262;DHT22;12385;51.412;5.540;2023-06-14T12:38:38;30.20;33.20
24262;DHT22;12385;51.412;5.540;2023-06-14T12:41:04;30.30;33.10
24262;DHT22;12385;51.412;5.540;2023-06-14T12:43:32;30.40;33.00
24262;DHT22;12385;51.412;5.540;2023-06-14T12:45:59;30.50;32.90
24262;DHT22;12385;51.412;5.540;2023-06-14T12:48:28;30.50;32.80
24262;DHT22;12385;51.412;5.540;2023-06-14T12:50:55;30.70;32.50
24262;DHT22;12385;51.412;5.540;2023-06-14T12:53:20;30.90;32.00
24262;DHT22;12385;51.412;5.540;2023-06-14T12:55:46;31.00;31.40
24262;DHT22;12385;51.412;5.540;2023-06-14T12:58:12;31.00;31.10
24262;DHT22;12385;51.412;5.540;2023-06-14T13:00:39;31.30;30.40
24262;DHT22;12385;51.412;5.540;2023-06-14T13:03:05;31.60;29.90
24262;DHT22;12385;51.412;5.540;2023-06-14T13:05:31;31.90;29.60
24262;DHT22;12385;51.412;5.540;2023-06-14T13:07:59;32.10;29.50
24262;DHT22;12385;51.412;5.540;2023-06-14T13:10:26;32.30;29.50
24262;DHT22;12385;51.412;5.540;2023-06-14T13:12:52;32.70;29.60
24262;DHT22;12385;51.412;5.540;2023-06-14T13:15:18;33.00;29.30
24262;DHT22;12385;51.412;5.540;2023-06-14T13:17:44;33.30;29.00
24262;DHT22;12385;51.412;5.540;2023-06-14T13:20:16;33.60;28.80
24262;DHT22;12385;51.412;5.540;2023-06-14T13:22:45;33.90;28.40
24262;DHT22;12385;51.412;5.540;2023-06-14T13:25:10;34.00;28.50
24262;DHT22;12385;51.412;5.540;2023-06-14T13:27:37;34.10;28.20
24262;DHT22;12385;51.412;5.540;2023-06-14T13:30:04;34.30;28.00
24262;DHT22;12385;51.412;5.540;2023-06-14T13:32:31;34.40;27.60
24262;DHT22;12385;51.412;5.540;2023-06-14T13:34:56;34.60;27.40
24262;DHT22;12385;51.412;5.540;2023-06-14T13:37:23;34.80;27.30
24262;DHT22;12385;51.412;5.540;2023-06-14T13:39:51;34.90;26.90
24262;DHT22;12385;51.412;5.540;2023-06-14T13:42:18;34.70;27.20
24262;DHT22;12385;51.412;5.540;2023-06-14T13:44:43;34.90;27.50
24262;DHT22;12385;51.412;5.540;2023-06-14T13:47:09;35.10;27.40
24262;DHT22;12385;51.412;5.540;2023-06-14T13:49:36;35.30;27.40
24262;DHT22;12385;51.412;5.540;2023-06-14T13:52:02;35.60;27.10
24262;DHT22;12385;51.412;5.540;2023-06-14T13:54:28;35.80;26.70
24262;DHT22;12385;51.412;5.540;2023-06-14T13:56:54;35.90;26.70
24262;DHT22;12385;51.412;5.540;2023-06-14T13:59:22;36.20;26.30
24262;DHT22;12385;51.412;5.540;2023-06-14T14:01:50;36.30;25.90
24262;DHT22;12385;51.412;5.540;2023-06-14T14:04:16;36.30;25.80
24262;DHT22;12385;51.412;5.540;2023-06-14T14:06:43;36.30;25.50
24262;DHT22;12385;51.412;5.540;2023-06-14T14:09:08;36.40;25.70
24262;DHT22;12385;51.412;5.540;2023-06-14T14:11:34;36.70;25.80
24262;DHT22;12385;51.412;5.540;2023-06-14T14:14:02;36.90;25.40
24262;DHT22;12385;51.412;5.540;2023-06-14T14:16:29;37.00;25.40
24262;DHT22;12385;51.412;5.540;2023-06-14T14:18:55;37.00;25.40
24262;DHT22;12385;51.412;5.540;2023-06-14T14:21:22;37.10;25.50
24262;DHT22;12385;51.412;5.540;2023-06-14T14:23:48;37.20;25.30
24262;DHT22;12385;51.412;5.540;2023-06-14T14:26:15;37.40;25.20
24262;DHT22;12385;51.412;5.540;2023-06-14T14:28:42;37.60;25.10
24262;DHT22;12385;51.412;5.540;2023-06-14T14:31:08;37.80;24.80
24262;DHT22;12385;51.412;5.540;2023-06-14T14:33:40;37.80;24.70
24262;DHT22;12385;51.412;5.540;2023-06-14T14:36:06;37.90;24.40
24262;DHT22;12385;51.412;5.540;2023-06-14T14:38:32;37.90;24.40
24262;DHT22;12385;51.412;5.540;2023-06-14T14:40:59;38.00;24.40
24262;DHT22;12385;51.412;5.540;2023-06-14T14:43:25;38.20;24.30
24262;DHT22;12385;51.412;5.540;2023-06-14T14:45:52;38.20;24.40
24262;DHT22;12385;51.412;5.540;2023-06-14T14:48:17;38.30;24.50
24262;DHT22;12385;51.412;5.540;2023-06-14T14:50:44;38.30;24.40
24262;DHT22;12385;51.412;5.540;2023-06-14T14:53:10;38.40;24.30
24262;DHT22;12385;51.412;5.540;2023-06-14T14:55:38;38.20;24.20
24262;DHT22;12385;51.412;5.540;2023-06-14T14:58:06;38.30;24.10
24262;DHT22;12385;51.412;5.540;2023-06-14T15:00:32;38.40;23.90
24262;DHT22;12385;51.412;5.540;2023-06-14T15:02:58;38.40;23.90
24262;DHT22;12385;51.412;5.540;2023-06-14T15:05:25;38.60;24.00
24262;DHT22;12385;51.412;5.540;2023-06-14T15:07:51;38.80;24.00
24262;DHT22;12385;51.412;5.540;2023-06-14T15:10:20;38.90;23.60
24262;DHT22;12385;51.412;5.540;2023-06-14T15:12:46;38.90;23.40
24262;DHT22;12385;51.412;5.540;2023-06-14T15:15:11;39.00;23.90
24262;DHT22;12385;51.412;5.540;2023-06-14T15:17:37;39.00;23.30
24262;DHT22;12385;51.412;5.540;2023-06-14T15:20:05;39.00;23.30
24262;DHT22;12385;51.412;5.540;2023-06-14T15:22:31;39.30;23.20
24262;DHT22;12385;51.412;5.540;2023-06-14T15:24:59;39.60;23.30
24262;DHT22;12385;51.412;5.540;2023-06-14T15:27:25;39.60;23.30
24262;DHT22;12385;51.412;5.540;2023-06-14T15:29:51;39.80;23.60
24262;DHT22;12385;51.412;5.540;2023-06-14T15:32:17;39.90;23.60
24262;DHT22;12385;51.412;5.540;2023-06-14T15:34:42;40.10;23.70
24262;DHT22;12385;51.412;5.540;2023-06-14T15:37:09;40.10;23.50
24262;DHT22;12385;51.412;5.540;2023-06-14T15:39:40;40.20;23.40
24262;DHT22;12385;51.412;5.540;2023-06-14T15:42:06;40.30;22.80
24262;DHT22;12385;51.412;5.540;2023-06-14T15:44:33;40.20;22.80
24262;DHT22;12385;51.412;5.540;2023-06-14T15:46:59;40.30;22.70